Weather at Frankfurt am Main Airport

Public forecast

Using degrees Celsius for public forecast. Weather courtesy of forecast.io.

Current aviation weather report (METAR) for Frankfurt am Main Airport

Retrieved 2022/05/19 08:20 UTC (40 minutes ago):

EDDF 190820Z 16004KT 110V200 CAVOK 24/10 Q1020 NOSIG

Aviation forecast (TAF) for Frankfurt am Main Airport

Retrieved 2022/05/19 06:27 UTC (3 hours ago):

TAF EDDF 190500Z 1906/2012 05005KT CAVOK BECMG 1906/1908 12005KT BECMG 1908/1911 20007KT PROB30 TEMPO 1915/1917 TSRA BKN050CB PROB40 TEMPO 1917/1921 24030G45KT 2000 TSRAGR BKN030CB BECMG 1921/1923 VRB03KT PROB30 TEMPO 2003/2007 TSRA BKN040CB BECMG 2007/2010 21007KT BECMG 2010/2012 21012KT